sensor_id;sensor_type;location;lat;lon;timestamp;P1;durP1;ratioP1;P2;durP2;ratioP2
15996;SDS011;8103;51.340;12.326;2022-09-13T00:01:09;6.95;;;6.25;;
15996;SDS011;8103;51.340;12.326;2022-09-13T00:03:36;7.28;;;6.68;;
15996;SDS011;8103;51.340;12.326;2022-09-13T00:06:13;6.57;;;5.82;;
15996;SDS011;8103;51.340;12.326;2022-09-13T00:08:42;6.43;;;5.82;;
15996;SDS011;8103;51.340;12.326;2022-09-13T00:11:16;6.72;;;6.13;;
15996;SDS011;8103;51.340;12.326;2022-09-13T00:13:48;8.15;;;7.45;;
15996;SDS011;8103;51.340;12.326;2022-09-13T00:16:16;6.97;;;6.28;;
15996;SDS011;8103;51.340;12.326;2022-09-13T00:18:45;7.05;;;6.35;;
15996;SDS011;8103;51.340;12.326;2022-09-13T00:21:14;8.77;;;6.22;;
15996;SDS011;8103;51.340;12.326;2022-09-13T00:23:43;7.28;;;6.07;;
15996;SDS011;8103;51.340;12.326;2022-09-13T00:26:12;6.70;;;6.03;;
15996;SDS011;8103;51.340;12.326;2022-09-13T00:28:41;6.38;;;5.80;;
15996;SDS011;8103;51.340;12.326;2022-09-13T00:31:08;10.18;;;6.50;;
15996;SDS011;8103;51.340;12.326;2022-09-13T00:33:35;9.48;;;6.75;;
15996;SDS011;8103;51.340;12.326;2022-09-13T00:36:04;7.13;;;6.03;;
15996;SDS011;8103;51.340;12.326;2022-09-13T00:38:36;7.70;;;6.88;;
15996;SDS011;8103;51.340;12.326;2022-09-13T00:41:04;8.13;;;6.82;;
15996;SDS011;8103;51.340;12.326;2022-09-13T00:43:43;9.48;;;7.05;;
15996;SDS011;8103;51.340;12.326;2022-09-13T00:48:56;8.63;;;7.10;;
15996;SDS011;8103;51.340;12.326;2022-09-13T00:51:28;8.07;;;7.28;;
15996;SDS011;8103;51.340;12.326;2022-09-13T00:53:55;11.27;;;7.38;;
15996;SDS011;8103;51.340;12.326;2022-09-13T00:56:38;7.20;;;6.53;;
15996;SDS011;8103;51.340;12.326;2022-09-13T00:59:11;7.47;;;6.78;;
15996;SDS011;8103;51.340;12.326;2022-09-13T01:01:43;10.90;;;7.20;;
15996;SDS011;8103;51.340;12.326;2022-09-13T01:04:14;7.13;;;6.45;;
15996;SDS011;8103;51.340;12.326;2022-09-13T01:06:44;6.75;;;6.20;;
15996;SDS011;8103;51.340;12.326;2022-09-13T01:09:11;9.45;;;7.40;;
15996;SDS011;8103;51.340;12.326;2022-09-13T01:11:48;7.88;;;6.20;;
15996;SDS011;8103;51.340;12.326;2022-09-13T01:14:29;6.53;;;5.82;;
15996;SDS011;8103;51.340;12.326;2022-09-13T01:16:58;8.18;;;7.38;;
15996;SDS011;8103;51.340;12.326;2022-09-13T01:19:25;6.85;;;6.15;;
15996;SDS011;8103;51.340;12.326;2022-09-13T01:30:20;8.15;;;6.65;;
15996;SDS011;8103;51.340;12.326;2022-09-13T01:35:46;6.78;;;6.15;;
15996;SDS011;8103;51.340;12.326;2022-09-13T01:38:43;8.70;;;7.00;;
15996;SDS011;8103;51.340;12.326;2022-09-13T01:44:37;7.10;;;6.40;;
15996;SDS011;8103;51.340;12.326;2022-09-13T01:47:28;7.03;;;6.32;;
15996;SDS011;8103;51.340;12.326;2022-09-13T01:50:12;7.25;;;6.30;;
15996;SDS011;8103;51.340;12.326;2022-09-13T01:56:16;6.97;;;6.28;;
15996;SDS011;8103;51.340;12.326;2022-09-13T01:59:00;7.20;;;6.32;;
15996;SDS011;8103;51.340;12.326;2022-09-13T02:01:43;7.35;;;6.25;;
15996;SDS011;8103;51.340;12.326;2022-09-13T02:04:26;7.20;;;6.28;;
15996;SDS011;8103;51.340;12.326;2022-09-13T02:07:03;7.53;;;6.82;;
15996;SDS011;8103;51.340;12.326;2022-09-13T02:09:37;7.60;;;6.75;;
15996;SDS011;8103;51.340;12.326;2022-09-13T02:12:13;7.60;;;6.82;;
15996;SDS011;8103;51.340;12.326;2022-09-13T02:17:49;7.70;;;6.05;;
15996;SDS011;8103;51.340;12.326;2022-09-13T02:20:29;7.40;;;6.68;;
15996;SDS011;8103;51.340;12.326;2022-09-13T02:23:13;8.07;;;6.32;;
15996;SDS011;8103;51.340;12.326;2022-09-13T02:25:49;8.57;;;6.20;;
15996;SDS011;8103;51.340;12.326;2022-09-13T02:28:22;6.88;;;6.07;;
15996;SDS011;8103;51.340;12.326;2022-09-13T02:30:54;7.57;;;5.93;;
15996;SDS011;8103;51.340;12.326;2022-09-13T02:33:28;6.78;;;6.13;;
15996;SDS011;8103;51.340;12.326;2022-09-13T02:38:33;8.65;;;6.45;;
15996;SDS011;8103;51.340;12.326;2022-09-13T02:41:21;7.45;;;5.95;;
15996;SDS011;8103;51.340;12.326;2022-09-13T02:44:17;6.70;;;6.00;;
15996;SDS011;8103;51.340;12.326;2022-09-13T02:52:32;8.65;;;7.75;;
15996;SDS011;8103;51.340;12.326;2022-09-13T02:55:16;6.78;;;6.13;;
15996;SDS011;8103;51.340;12.326;2022-09-13T03:00:34;6.22;;;5.63;;
15996;SDS011;8103;51.340;12.326;2022-09-13T03:03:02;8.27;;;6.85;;
15996;SDS011;8103;51.340;12.326;2022-09-13T03:05:32;7.15;;;5.80;;
15996;SDS011;8103;51.340;12.326;2022-09-13T03:07:58;7.95;;;6.40;;
15996;SDS011;8103;51.340;12.326;2022-09-13T03:10:27;6.85;;;6.05;;
15996;SDS011;8103;51.340;12.326;2022-09-13T03:15:44;8.07;;;6.03;;
15996;SDS011;8103;51.340;12.326;2022-09-13T03:18:30;7.15;;;6.18;;
15996;SDS011;8103;51.340;12.326;2022-09-13T03:21:26;6.68;;;5.50;;
15996;SDS011;8103;51.340;12.326;2022-09-13T03:29:39;6.57;;;5.88;;
15996;SDS011;8103;51.340;12.326;2022-09-13T03:32:34;8.68;;;6.28;;
15996;SDS011;8103;51.340;12.326;2022-09-13T03:35:22;6.43;;;5.80;;
15996;SDS011;8103;51.340;12.326;2022-09-13T03:40:47;7.38;;;6.55;;
15996;SDS011;8103;51.340;12.326;2022-09-13T03:43:26;8.18;;;6.80;;
15996;SDS011;8103;51.340;12.326;2022-09-13T03:46:23;6.50;;;5.90;;
15996;SDS011;8103;51.340;12.326;2022-09-13T03:48:56;7.57;;;6.15;;
15996;SDS011;8103;51.340;12.326;2022-09-13T03:51:28;7.20;;;6.43;;
15996;SDS011;8103;51.340;12.326;2022-09-13T03:53:56;6.68;;;6.07;;
15996;SDS011;8103;51.340;12.326;2022-09-13T03:56:27;6.40;;;5.78;;
15996;SDS011;8103;51.340;12.326;2022-09-13T03:58:54;6.88;;;6.10;;
15996;SDS011;8103;51.340;12.326;2022-09-13T04:01:21;7.65;;;6.22;;
15996;SDS011;8103;51.340;12.326;2022-09-13T04:03:49;7.32;;;6.03;;
15996;SDS011;8103;51.340;12.326;2022-09-13T04:06:21;8.80;;;6.38;;
15996;SDS011;8103;51.340;12.326;2022-09-13T04:08:48;7.00;;;6.25;;
15996;SDS011;8103;51.340;12.326;2022-09-13T04:11:15;6.88;;;6.10;;
15996;SDS011;8103;51.340;12.326;2022-09-13T04:13:42;6.85;;;6.10;;
15996;SDS011;8103;51.340;12.326;2022-09-13T04:16:08;6.97;;;5.63;;
15996;SDS011;8103;51.340;12.326;2022-09-13T04:18:35;7.45;;;6.30;;
15996;SDS011;8103;51.340;12.326;2022-09-13T04:21:02;6.20;;;5.60;;
15996;SDS011;8103;51.340;12.326;2022-09-13T04:23:29;6.60;;;5.90;;
15996;SDS011;8103;51.340;12.326;2022-09-13T04:26:00;7.57;;;6.22;;
15996;SDS011;8103;51.340;12.326;2022-09-13T04:28:31;9.77;;;6.55;;
15996;SDS011;8103;51.340;12.326;2022-09-13T04:30:57;7.90;;;6.15;;
15996;SDS011;8103;51.340;12.326;2022-09-13T04:33:24;7.57;;;6.20;;
15996;SDS011;8103;51.340;12.326;2022-09-13T04:35:57;8.63;;;6.60;;
15996;SDS011;8103;51.340;12.326;2022-09-13T04:38:25;7.75;;;6.75;;
15996;SDS011;8103;51.340;12.326;2022-09-13T04:40:53;6.85;;;6.25;;
15996;SDS011;8103;51.340;12.326;2022-09-13T04:43:20;7.28;;;5.95;;
15996;SDS011;8103;51.340;12.326;2022-09-13T04:45:48;9.98;;;6.60;;
15996;SDS011;8103;51.340;12.326;2022-09-13T04:48:16;8.10;;;7.18;;
15996;SDS011;8103;51.340;12.326;2022-09-13T04:50:43;7.18;;;6.35;;
15996;SDS011;8103;51.340;12.326;2022-09-13T04:53:10;8.70;;;6.95;;
15996;SDS011;8103;51.340;12.326;2022-09-13T04:55:37;8.38;;;6.93;;
15996;SDS011;8103;51.340;12.326;2022-09-13T04:58:04;11.55;;;7.57;;
15996;SDS011;8103;51.340;12.326;2022-09-13T05:00:31;10.63;;;6.95;;
15996;SDS011;8103;51.340;12.326;2022-09-13T05:02:58;10.68;;;6.30;;
15996;SDS011;8103;51.340;12.326;2022-09-13T05:05:25;7.63;;;6.55;;
15996;SDS011;8103;51.340;12.326;2022-09-13T05:07:53;7.00;;;6.30;;
15996;SDS011;8103;51.340;12.326;2022-09-13T05:10:20;9.65;;;7.95;;
15996;SDS011;8103;51.340;12.326;2022-09-13T05:12:47;9.15;;;6.78;;
15996;SDS011;8103;51.340;12.326;2022-09-13T05:15:14;7.68;;;6.88;;
15996;SDS011;8103;51.340;12.326;2022-09-13T05:17:41;8.23;;;7.38;;
15996;SDS011;8103;51.340;12.326;2022-09-13T05:20:08;7.20;;;6.50;;
15996;SDS011;8103;51.340;12.326;2022-09-13T05:22:35;8.75;;;7.28;;
15996;SDS011;8103;51.340;12.326;2022-09-13T05:25:02;10.77;;;7.28;;
15996;SDS011;8103;51.340;12.326;2022-09-13T05:27:29;9.40;;;6.85;;
15996;SDS011;8103;51.340;12.326;2022-09-13T05:29:56;7.93;;;7.13;;
15996;SDS011;8103;51.340;12.326;2022-09-13T05:32:22;6.72;;;6.07;;
15996;SDS011;8103;51.340;12.326;2022-09-13T05:34:49;7.53;;;6.43;;
15996;SDS011;8103;51.340;12.326;2022-09-13T05:37:17;11.55;;;7.75;;
15996;SDS011;8103;51.340;12.326;2022-09-13T05:39:44;9.07;;;6.88;;
15996;SDS011;8103;51.340;12.326;2022-09-13T05:42:30;10.93;;;6.63;;
15996;SDS011;8103;51.340;12.326;2022-09-13T05:44:57;7.25;;;5.68;;
15996;SDS011;8103;51.340;12.326;2022-09-13T05:47:24;8.23;;;6.80;;
15996;SDS011;8103;51.340;12.326;2022-09-13T05:49:50;7.57;;;6.28;;
15996;SDS011;8103;51.340;12.326;2022-09-13T05:52:34;8.65;;;6.57;;
15996;SDS011;8103;51.340;12.326;2022-09-13T05:55:01;7.72;;;6.80;;
15996;SDS011;8103;51.340;12.326;2022-09-13T05:57:28;14.10;;;7.13;;
15996;SDS011;8103;51.340;12.326;2022-09-13T05:59:54;8.70;;;6.20;;
15996;SDS011;8103;51.340;12.326;2022-09-13T06:02:21;10.20;;;6.18;;
15996;SDS011;8103;51.340;12.326;2022-09-13T06:04:48;9.98;;;6.70;;
15996;SDS011;8103;51.340;12.326;2022-09-13T06:07:16;7.35;;;6.60;;
15996;SDS011;8103;51.340;12.326;2022-09-13T06:09:42;7.55;;;6.68;;
15996;SDS011;8103;51.340;12.326;2022-09-13T06:12:10;7.72;;;6.15;;
15996;SDS011;8103;51.340;12.326;2022-09-13T06:14:37;9.15;;;6.85;;
15996;SDS011;8103;51.340;12.326;2022-09-13T06:17:04;7.90;;;6.32;;
15996;SDS011;8103;51.340;12.326;2022-09-13T06:19:30;8.55;;;7.43;;
15996;SDS011;8103;51.340;12.326;2022-09-13T06:21:57;10.35;;;6.25;;
15996;SDS011;8103;51.340;12.326;2022-09-13T06:24:24;11.25;;;6.65;;
15996;SDS011;8103;51.340;12.326;2022-09-13T06:26:51;6.90;;;6.22;;
15996;SDS011;8103;51.340;12.326;2022-09-13T06:29:18;8.63;;;7.25;;
15996;SDS011;8103;51.340;12.326;2022-09-13T06:31:45;8.15;;;6.28;;
15996;SDS011;8103;51.340;12.326;2022-09-13T06:34:12;9.68;;;6.80;;
15996;SDS011;8103;51.340;12.326;2022-09-13T06:36:42;12.73;;;7.18;;
15996;SDS011;8103;51.340;12.326;2022-09-13T06:39:09;8.10;;;6.50;;
15996;SDS011;8103;51.340;12.326;2022-09-13T06:41:36;7.55;;;6.80;;
15996;SDS011;8103;51.340;12.326;2022-09-13T06:44:03;8.10;;;6.80;;
15996;SDS011;8103;51.340;12.326;2022-09-13T06:46:30;6.97;;;6.38;;
15996;SDS011;8103;51.340;12.326;2022-09-13T06:49:01;7.68;;;5.57;;
15996;SDS011;8103;51.340;12.326;2022-09-13T06:51:29;8.82;;;6.28;;
15996;SDS011;8103;51.340;12.326;2022-09-13T06:53:57;7.75;;;6.30;;
15996;SDS011;8103;51.340;12.326;2022-09-13T06:56:32;7.30;;;6.45;;
15996;SDS011;8103;51.340;12.326;2022-09-13T06:59:01;11.00;;;7.25;;
15996;SDS011;8103;51.340;12.326;2022-09-13T07:01:40;7.55;;;6.60;;
15996;SDS011;8103;51.340;12.326;2022-09-13T07:04:12;11.50;;;7.35;;
15996;SDS011;8103;51.340;12.326;2022-09-13T07:06:45;11.27;;;7.22;;
15996;SDS011;8103;51.340;12.326;2022-09-13T07:09:18;9.63;;;7.30;;
15996;SDS011;8103;51.340;12.326;2022-09-13T07:11:47;7.63;;;6.43;;
15996;SDS011;8103;51.340;12.326;2022-09-13T07:14:16;10.13;;;7.43;;
15996;SDS011;8103;51.340;12.326;2022-09-13T07:16:47;5.95;;;5.38;;
15996;SDS011;8103;51.340;12.326;2022-09-13T07:19:15;8.13;;;6.25;;
15996;SDS011;8103;51.340;12.326;2022-09-13T07:21:51;6.93;;;6.22;;
15996;SDS011;8103;51.340;12.326;2022-09-13T07:24:19;6.93;;;5.47;;
15996;SDS011;8103;51.340;12.326;2022-09-13T07:26:47;7.30;;;6.63;;
15996;SDS011;8103;51.340;12.326;2022-09-13T07:29:16;8.57;;;7.70;;
15996;SDS011;8103;51.340;12.326;2022-09-13T07:31:45;7.28;;;6.57;;
15996;SDS011;8103;51.340;12.326;2022-09-13T07:34:14;6.63;;;5.97;;
15996;SDS011;8103;51.340;12.326;2022-09-13T07:36:43;11.63;;;7.85;;
15996;SDS011;8103;51.340;12.326;2022-09-13T07:39:12;11.27;;;7.78;;
15996;SDS011;8103;51.340;12.326;2022-09-13T07:41:44;11.07;;;7.75;;
15996;SDS011;8103;51.340;12.326;2022-09-13T07:44:12;9.32;;;8.23;;
15996;SDS011;8103;51.340;12.326;2022-09-13T07:46:39;9.43;;;7.97;;
15996;SDS011;8103;51.340;12.326;2022-09-13T07:49:10;8.65;;;7.60;;
15996;SDS011;8103;51.340;12.326;2022-09-13T07:51:38;13.52;;;8.38;;
15996;SDS011;8103;51.340;12.326;2022-09-13T07:54:11;8.73;;;7.63;;
15996;SDS011;8103;51.340;12.326;2022-09-13T07:56:40;10.27;;;7.93;;
15996;SDS011;8103;51.340;12.326;2022-09-13T07:59:10;9.27;;;7.97;;
15996;SDS011;8103;51.340;12.326;2022-09-13T08:01:42;14.70;;;8.70;;
15996;SDS011;8103;51.340;12.326;2022-09-13T08:04:14;11.80;;;7.68;;
15996;SDS011;8103;51.340;12.326;2022-09-13T08:06:43;10.40;;;8.50;;
15996;SDS011;8103;51.340;12.326;2022-09-13T08:09:11;11.48;;;7.97;;
15996;SDS011;8103;51.340;12.326;2022-09-13T08:11:40;10.52;;;8.93;;
15996;SDS011;8103;51.340;12.326;2022-09-13T08:14:12;8.10;;;6.43;;
15996;SDS011;8103;51.340;12.326;2022-09-13T08:16:41;8.00;;;7.20;;
15996;SDS011;8103;51.340;12.326;2022-09-13T08:19:10;8.80;;;7.40;;
15996;SDS011;8103;51.340;12.326;2022-09-13T08:21:39;7.78;;;6.78;;
15996;SDS011;8103;51.340;12.326;2022-09-13T08:24:07;8.35;;;6.80;;
15996;SDS011;8103;51.340;12.326;2022-09-13T08:26:39;11.13;;;7.97;;
15996;SDS011;8103;51.340;12.326;2022-09-13T08:29:06;9.77;;;6.78;;
15996;SDS011;8103;51.340;12.326;2022-09-13T08:31:33;7.47;;;6.20;;
15996;SDS011;8103;51.340;12.326;2022-09-13T08:34:00;7.80;;;6.00;;
15996;SDS011;8103;51.340;12.326;2022-09-13T08:36:27;6.03;;;5.47;;
15996;SDS011;8103;51.340;12.326;2022-09-13T08:38:58;8.60;;;7.72;;
15996;SDS011;8103;51.340;12.326;2022-09-13T08:41:46;7.50;;;6.75;;
15996;SDS011;8103;51.340;12.326;2022-09-13T08:44:31;8.30;;;6.10;;
15996;SDS011;8103;51.340;12.326;2022-09-13T08:49:55;9.73;;;6.30;;
15996;SDS011;8103;51.340;12.326;2022-09-13T08:55:24;6.93;;;6.07;;
15996;SDS011;8103;51.340;12.326;2022-09-13T08:58:36;7.90;;;6.10;;
15996;SDS011;8103;51.340;12.326;2022-09-13T09:06:52;6.97;;;6.00;;
15996;SDS011;8103;51.340;12.326;2022-09-13T09:09:34;7.13;;;6.03;;
15996;SDS011;8103;51.340;12.326;2022-09-13T09:14:56;7.63;;;6.68;;
15996;SDS011;8103;51.340;12.326;2022-09-13T09:17:28;7.45;;;6.72;;
15996;SDS011;8103;51.340;12.326;2022-09-13T09:20:19;5.82;;;5.18;;
15996;SDS011;8103;51.340;12.326;2022-09-13T09:22:50;9.32;;;5.40;;
15996;SDS011;8103;51.340;12.326;2022-09-13T09:25:21;7.30;;;5.35;;
15996;SDS011;8103;51.340;12.326;2022-09-13T09:27:50;4.55;;;3.97;;
15996;SDS011;8103;51.340;12.326;2022-09-13T09:30:18;5.05;;;4.60;;
15996;SDS011;8103;51.340;12.326;2022-09-13T09:32:46;5.65;;;5.03;;
15996;SDS011;8103;51.340;12.326;2022-09-13T09:35:37;5.82;;;4.72;;
15996;SDS011;8103;51.340;12.326;2022-09-13T09:43:55;5.45;;;4.50;;
15996;SDS011;8103;51.340;12.326;2022-09-13T09:46:27;5.30;;;4.40;;
15996;SDS011;8103;51.340;12.326;2022-09-13T09:49:12;8.15;;;4.13;;
15996;SDS011;8103;51.340;12.326;2022-09-13T09:52:04;4.80;;;4.32;;
15996;SDS011;8103;51.340;12.326;2022-09-13T09:54:35;6.05;;;4.25;;
15996;SDS011;8103;51.340;12.326;2022-09-13T09:57:04;3.88;;;3.53;;
15996;SDS011;8103;51.340;12.326;2022-09-13T09:59:33;5.00;;;3.85;;
15996;SDS011;8103;51.340;12.326;2022-09-13T10:02:02;4.20;;;3.90;;
15996;SDS011;8103;51.340;12.326;2022-09-13T10:04:42;9.00;;;4.28;;
15996;SDS011;8103;51.340;12.326;2022-09-13T10:10:37;4.88;;;3.78;;
15996;SDS011;8103;51.340;12.326;2022-09-13T10:12:50;4.43;;;3.35;;
15996;SDS011;8103;51.340;12.326;2022-09-13T10:15:20;5.22;;;3.42;;
15996;SDS011;8103;51.340;12.326;2022-09-13T10:17:59;3.85;;;3.53;;
15996;SDS011;8103;51.340;12.326;2022-09-13T10:21:05;4.88;;;3.03;;
15996;SDS011;8103;51.340;12.326;2022-09-13T10:23:45;3.42;;;3.13;;
15996;SDS011;8103;51.340;12.326;2022-09-13T10:26:17;4.85;;;2.97;;
15996;SDS011;8103;51.340;12.326;2022-09-13T10:31:18;2.67;;;2.47;;
15996;SDS011;8103;51.340;12.326;2022-09-13T10:36:23;6.68;;;3.20;;
15996;SDS011;8103;51.340;12.326;2022-09-13T10:39:17;3.75;;;2.63;;
15996;SDS011;8103;51.340;12.326;2022-09-13T10:41:48;4.45;;;2.85;;
15996;SDS011;8103;51.340;12.326;2022-09-13T10:46:54;5.20;;;2.53;;
15996;SDS011;8103;51.340;12.326;2022-09-13T10:49:34;4.97;;;2.95;;
15996;SDS011;8103;51.340;12.326;2022-09-13T10:52:29;3.00;;;2.70;;
15996;SDS011;8103;51.340;12.326;2022-09-13T10:57:44;3.83;;;2.75;;
15996;SDS011;8103;51.340;12.326;2022-09-13T11:00:17;3.13;;;2.83;;
15996;SDS011;8103;51.340;12.326;2022-09-13T11:03:05;7.00;;;3.30;;
15996;SDS011;8103;51.340;12.326;2022-09-13T11:08:55;2.70;;;2.50;;
15996;SDS011;8103;51.340;12.326;2022-09-13T11:11:42;8.95;;;2.67;;
15996;SDS011;8103;51.340;12.326;2022-09-13T11:23:58;2.65;;;2.40;;
15996;SDS011;8103;51.340;12.326;2022-09-13T11:29:42;4.97;;;3.30;;
15996;SDS011;8103;51.340;12.326;2022-09-13T11:32:30;4.15;;;3.15;;
15996;SDS011;8103;51.340;12.326;2022-09-13T11:35:06;5.35;;;2.85;;
15996;SDS011;8103;51.340;12.326;2022-09-13T11:37:49;3.83;;;3.10;;
15996;SDS011;8103;51.340;12.326;2022-09-13T11:40:34;5.05;;;3.95;;
15996;SDS011;8103;51.340;12.326;2022-09-13T11:43:22;2.78;;;2.58;;
15996;SDS011;8103;51.340;12.326;2022-09-13T11:46:26;3.15;;;2.92;;
15996;SDS011;8103;51.340;12.326;2022-09-13T11:51:53;3.08;;;2.47;;
15996;SDS011;8103;51.340;12.326;2022-09-13T11:57:28;3.97;;;3.40;;
15996;SDS011;8103;51.340;12.326;2022-09-13T12:00:18;3.03;;;2.63;;
15996;SDS011;8103;51.340;12.326;2022-09-13T12:02:48;3.88;;;3.13;;
15996;SDS011;8103;51.340;12.326;2022-09-13T12:05:47;4.53;;;2.75;;
15996;SDS011;8103;51.340;12.326;2022-09-13T12:08:39;5.25;;;2.90;;
15996;SDS011;8103;51.340;12.326;2022-09-13T12:11:32;6.15;;;2.33;;
15996;SDS011;8103;51.340;12.326;2022-09-13T12:14:03;3.20;;;2.90;;
15996;SDS011;8103;51.340;12.326;2022-09-13T12:16:34;3.83;;;2.78;;
15996;SDS011;8103;51.340;12.326;2022-09-13T12:21:54;3.15;;;2.85;;
15996;SDS011;8103;51.340;12.326;2022-09-13T12:24:46;3.85;;;3.50;;
15996;SDS011;8103;51.340;12.326;2022-09-13T12:27:25;3.60;;;3.05;;
15996;SDS011;8103;51.340;12.326;2022-09-13T12:30:15;4.97;;;2.80;;
15996;SDS011;8103;51.340;12.326;2022-09-13T12:32:58;5.32;;;2.65;;
15996;SDS011;8103;51.340;12.326;2022-09-13T12:35:27;2.85;;;2.55;;
15996;SDS011;8103;51.340;12.326;2022-09-13T12:38:26;2.78;;;2.58;;
15996;SDS011;8103;51.340;12.326;2022-09-13T12:41:19;2.97;;;2.78;;
15996;SDS011;8103;51.340;12.326;2022-09-13T12:44:11;3.28;;;1.92;;
15996;SDS011;8103;51.340;12.326;2022-09-13T12:47:37;3.55;;;2.63;;
15996;SDS011;8103;51.340;12.326;2022-09-13T12:53:23;5.07;;;2.15;;
15996;SDS011;8103;51.340;12.326;2022-09-13T12:56:00;6.15;;;2.03;;
15996;SDS011;8103;51.340;12.326;2022-09-13T12:59:03;8.77;;;2.53;;
15996;SDS011;8103;51.340;12.326;2022-09-13T13:01:36;3.17;;;1.85;;
15996;SDS011;8103;51.340;12.326;2022-09-13T13:04:14;10.23;;;2.25;;
15996;SDS011;8103;51.340;12.326;2022-09-13T13:06:49;2.40;;;2.10;;
15996;SDS011;8103;51.340;12.326;2022-09-13T13:12:08;6.13;;;1.90;;
15996;SDS011;8103;51.340;12.326;2022-09-13T13:26:07;4.50;;;2.63;;
15996;SDS011;8103;51.340;12.326;2022-09-13T13:33:52;2.45;;;1.90;;
15996;SDS011;8103;51.340;12.326;2022-09-13T13:36:24;4.00;;;3.15;;
15996;SDS011;8103;51.340;12.326;2022-09-13T13:40:09;6.60;;;2.22;;
15996;SDS011;8103;51.340;12.326;2022-09-13T13:41:54;5.82;;;2.38;;
15996;SDS011;8103;51.340;12.326;2022-09-13T14:00:05;3.30;;;2.03;;
15996;SDS011;8103;51.340;12.326;2022-09-13T14:02:52;2.55;;;1.95;;
15996;SDS011;8103;51.340;12.326;2022-09-13T14:08:34;2.20;;;1.73;;
15996;SDS011;8103;51.340;12.326;2022-09-13T14:11:26;3.95;;;2.03;;
15996;SDS011;8103;51.340;12.326;2022-09-13T14:14:19;2.50;;;2.00;;
15996;SDS011;8103;51.340;12.326;2022-09-13T14:19:59;2.17;;;1.92;;
15996;SDS011;8103;51.340;12.326;2022-09-13T14:22:39;1.88;;;1.77;;
15996;SDS011;8103;51.340;12.326;2022-09-13T14:27:48;2.90;;;1.83;;
15996;SDS011;8103;51.340;12.326;2022-09-13T14:30:20;4.78;;;2.13;;
15996;SDS011;8103;51.340;12.326;2022-09-13T14:32:53;2.75;;;2.08;;
15996;SDS011;8103;51.340;12.326;2022-09-13T14:35:26;3.92;;;2.30;;
15996;SDS011;8103;51.340;12.326;2022-09-13T14:37:55;2.42;;;2.22;;
15996;SDS011;8103;51.340;12.326;2022-09-13T14:40:37;2.65;;;1.92;;
15996;SDS011;8103;51.340;12.326;2022-09-13T14:43:14;5.00;;;2.33;;
15996;SDS011;8103;51.340;12.326;2022-09-13T14:45:44;4.63;;;2.45;;
15996;SDS011;8103;51.340;12.326;2022-09-13T14:48:16;4.55;;;2.72;;
15996;SDS011;8103;51.340;12.326;2022-09-13T14:50:51;3.50;;;2.25;;
15996;SDS011;8103;51.340;12.326;2022-09-13T14:53:39;5.63;;;2.05;;
15996;SDS011;8103;51.340;12.326;2022-09-13T14:56:12;5.18;;;2.22;;
15996;SDS011;8103;51.340;12.326;2022-09-13T14:58:52;5.30;;;2.75;;
15996;SDS011;8103;51.340;12.326;2022-09-13T15:01:25;2.90;;;2.35;;
15996;SDS011;8103;51.340;12.326;2022-09-13T15:03:58;3.63;;;2.20;;
15996;SDS011;8103;51.340;12.326;2022-09-13T15:06:33;2.72;;;2.22;;
15996;SDS011;8103;51.340;12.326;2022-09-13T15:11:36;4.05;;;2.25;;
15996;SDS011;8103;51.340;12.326;2022-09-13T15:16:47;2.85;;;2.60;;
15996;SDS011;8103;51.340;12.326;2022-09-13T15:19:26;2.13;;;1.92;;
15996;SDS011;8103;51.340;12.326;2022-09-13T15:22:01;5.10;;;2.00;;
15996;SDS011;8103;51.340;12.326;2022-09-13T15:24:40;2.95;;;2.65;;
15996;SDS011;8103;51.340;12.326;2022-09-13T15:27:26;2.20;;;2.00;;
15996;SDS011;8103;51.340;12.326;2022-09-13T15:29:55;2.80;;;2.17;;
15996;SDS011;8103;51.340;12.326;2022-09-13T15:32:28;2.65;;;2.45;;
15996;SDS011;8103;51.340;12.326;2022-09-13T15:35:22;3.17;;;2.50;;
15996;SDS011;8103;51.340;12.326;2022-09-13T15:38:00;2.20;;;2.00;;
15996;SDS011;8103;51.340;12.326;2022-09-13T15:40:41;10.57;;;4.10;;
15996;SDS011;8103;51.340;12.326;2022-09-13T15:43:09;4.55;;;3.30;;
15996;SDS011;8103;51.340;12.326;2022-09-13T15:45:36;3.80;;;3.40;;
15996;SDS011;8103;51.340;12.326;2022-09-13T15:48:03;3.95;;;3.53;;
15996;SDS011;8103;51.340;12.326;2022-09-13T15:50:31;3.75;;;3.42;;
15996;SDS011;8103;51.340;12.326;2022-09-13T15:52:59;3.72;;;3.35;;
15996;SDS011;8103;51.340;12.326;2022-09-13T15:55:26;3.80;;;2.67;;
15996;SDS011;8103;51.340;12.326;2022-09-13T15:57:54;3.42;;;2.83;;
15996;SDS011;8103;51.340;12.326;2022-09-13T16:00:21;6.10;;;2.97;;
15996;SDS011;8103;51.340;12.326;2022-09-13T16:02:50;3.58;;;3.28;;
15996;SDS011;8103;51.340;12.326;2022-09-13T16:05:17;3.38;;;2.97;;
15996;SDS011;8103;51.340;12.326;2022-09-13T16:07:44;9.30;;;8.20;;
15996;SDS011;8103;51.340;12.326;2022-09-13T16:10:18;3.67;;;3.13;;
15996;SDS011;8103;51.340;12.326;2022-09-13T16:12:46;4.80;;;2.92;;
15996;SDS011;8103;51.340;12.326;2022-09-13T16:15:14;3.63;;;2.95;;
15996;SDS011;8103;51.340;12.326;2022-09-13T16:17:42;9.63;;;4.60;;
15996;SDS011;8103;51.340;12.326;2022-09-13T16:20:10;4.43;;;4.00;;
15996;SDS011;8103;51.340;12.326;2022-09-13T16:22:39;4.80;;;3.72;;
15996;SDS011;8103;51.340;12.326;2022-09-13T16:25:06;4.30;;;3.85;;
15996;SDS011;8103;51.340;12.326;2022-09-13T16:27:34;6.82;;;3.50;;
15996;SDS011;8103;51.340;12.326;2022-09-13T16:30:02;4.78;;;3.35;;
15996;SDS011;8103;51.340;12.326;2022-09-13T16:32:30;4.72;;;3.72;;
15996;SDS011;8103;51.340;12.326;2022-09-13T16:34:56;4.25;;;3.40;;
15996;SDS011;8103;51.340;12.326;2022-09-13T16:37:23;3.50;;;3.20;;
15996;SDS011;8103;51.340;12.326;2022-09-13T16:39:50;5.85;;;3.30;;
15996;SDS011;8103;51.340;12.326;2022-09-13T16:42:17;5.03;;;3.38;;
15996;SDS011;8103;51.340;12.326;2022-09-13T16:44:45;4.22;;;3.50;;
15996;SDS011;8103;51.340;12.326;2022-09-13T16:47:11;4.38;;;3.53;;
15996;SDS011;8103;51.340;12.326;2022-09-13T16:49:39;3.25;;;2.97;;
15996;SDS011;8103;51.340;12.326;2022-09-13T16:52:06;3.13;;;2.80;;
15996;SDS011;8103;51.340;12.326;2022-09-13T16:54:34;4.45;;;2.80;;
15996;SDS011;8103;51.340;12.326;2022-09-13T16:57:02;3.13;;;2.83;;
15996;SDS011;8103;51.340;12.326;2022-09-13T16:59:33;4.38;;;3.50;;
15996;SDS011;8103;51.340;12.326;2022-09-13T17:02:00;4.15;;;2.70;;
15996;SDS011;8103;51.340;12.326;2022-09-13T17:04:27;4.53;;;3.63;;
15996;SDS011;8103;51.340;12.326;2022-09-13T17:06:54;5.63;;;4.15;;
15996;SDS011;8103;51.340;12.326;2022-09-13T17:09:21;4.60;;;4.10;;
15996;SDS011;8103;51.340;12.326;2022-09-13T17:11:51;4.97;;;3.50;;
15996;SDS011;8103;51.340;12.326;2022-09-13T17:14:18;5.00;;;3.45;;
15996;SDS011;8103;51.340;12.326;2022-09-13T17:16:52;6.35;;;3.63;;
15996;SDS011;8103;51.340;12.326;2022-09-13T17:19:23;3.90;;;3.47;;
15996;SDS011;8103;51.340;12.326;2022-09-13T17:21:52;3.83;;;3.50;;
15996;SDS011;8103;51.340;12.326;2022-09-13T17:24:23;3.65;;;3.35;;
15996;SDS011;8103;51.340;12.326;2022-09-13T17:26:50;3.42;;;3.13;;
15996;SDS011;8103;51.340;12.326;2022-09-13T17:29:18;4.75;;;3.80;;
15996;SDS011;8103;51.340;12.326;2022-09-13T17:31:44;5.07;;;4.22;;
15996;SDS011;8103;51.340;12.326;2022-09-13T17:34:11;5.20;;;4.05;;
15996;SDS011;8103;51.340;12.326;2022-09-13T17:36:39;4.88;;;3.90;;
15996;SDS011;8103;51.340;12.326;2022-09-13T17:39:06;6.28;;;5.35;;
15996;SDS011;8103;51.340;12.326;2022-09-13T17:41:33;4.68;;;3.95;;
15996;SDS011;8103;51.340;12.326;2022-09-13T17:44:01;4.93;;;4.43;;
15996;SDS011;8103;51.340;12.326;2022-09-13T17:46:28;6.72;;;4.43;;
15996;SDS011;8103;51.340;12.326;2022-09-13T17:48:56;4.70;;;3.95;;
15996;SDS011;8103;51.340;12.326;2022-09-13T17:51:25;8.20;;;6.00;;
15996;SDS011;8103;51.340;12.326;2022-09-13T17:53:54;6.90;;;6.20;;
15996;SDS011;8103;51.340;12.326;2022-09-13T17:56:24;6.20;;;5.60;;
15996;SDS011;8103;51.340;12.326;2022-09-13T17:59:09;4.32;;;3.97;;